Time;durP1;ratioP1;P1;durP2;ratioP2;P2;SDS_P1;SDS_P2;PMS_P1;PMS_P2;Temp;Humidity;BMP_temperature;BMP_pressure;BME280_temperature;BME280_humidity;BME280_pressure;Samples;Min_cycle;Max_cycle;Signal;HPM_P1;HPM_P2
2022/07/04 00:00:10;;;;;;;1.25;0.52;;;15.70;99.90;;;;;;5034153;28;20115;-66
2022/07/04 00:02:38;;;;;;;1.88;0.77;;;15.70;99.90;;;;;;5030789;28;20037;-67
2022/07/04 00:05:04;;;;;;;2.30;0.88;;;15.60;99.90;;;;;;5037382;28;20029;-67
2022/07/04 00:07:30;;;;;;;4.63;1.08;;;15.60;99.90;;;;;;5029717;28;20029;-66
2022/07/04 00:09:56;;;;;;;2.45;0.82;;;15.60;99.90;;;;;;5028602;28;20026;-66
2022/07/04 00:12:21;;;;;;;2.67;0.70;;;15.50;99.90;;;;;;5034716;28;20112;-67
2022/07/04 00:14:47;;;;;;;2.60;1.05;;;15.50;99.90;;;;;;5040707;28;20017;-67
2022/07/04 00:17:13;;;;;;;1.02;0.75;;;15.40;99.90;;;;;;5030533;28;20036;-66
2022/07/04 00:19:38;;;;;;;1.30;0.80;;;15.40;99.90;;;;;;5030115;28;20053;-67
2022/07/04 00:22:04;;;;;;;2.17;0.80;;;15.40;99.90;;;;;;5033832;28;20037;-66
2022/07/04 00:24:30;;;;;;;1.20;0.85;;;15.30;99.90;;;;;;5038694;28;20115;-66
2022/07/04 00:26:55;;;;;;;3.10;1.15;;;15.20;99.90;;;;;;5043700;28;20028;-67
2022/07/04 00:29:21;;;;;;;1.67;0.90;;;15.20;99.90;;;;;;5037093;28;20029;-66
2022/07/04 00:31:47;;;;;;;5.03;0.75;;;15.00;99.90;;;;;;5033867;28;20056;-65
2022/07/04 00:34:12;;;;;;;2.28;0.63;;;15.00;99.90;;;;;;5034743;28;20047;-66
2022/07/04 00:36:38;;;;;;;1.83;0.80;;;15.00;99.90;;;;;;5030902;28;20453;-66
2022/07/04 00:39:04;;;;;;;0.93;0.63;;;14.90;99.90;;;;;;5030968;28;20036;-66
2022/07/04 00:41:29;;;;;;;1.00;0.90;;;15.00;99.90;;;;;;5029398;28;20048;-66
2022/07/04 00:44:03;;;;;;;3.45;1.05;;;15.00;99.90;;;;;;5038435;28;20400;-66
2022/07/04 00:46:29;;;;;;;4.28;0.80;;;15.00;99.90;;;;;;5034437;28;20108;-66
2022/07/04 00:48:55;;;;;;;2.78;1.23;;;15.00;99.90;;;;;;5036892;28;20117;-66
2022/07/04 00:51:21;;;;;;;2.35;0.88;;;14.90;99.90;;;;;;5031713;28;20101;-66
2022/07/04 00:53:46;;;;;;;7.55;1.00;;;14.90;99.90;;;;;;5025323;28;20440;-66
2022/07/04 00:56:12;;;;;;;2.00;0.80;;;14.80;99.90;;;;;;5032858;28;20034;-65
2022/07/04 00:58:37;;;;;;;10.18;1.17;;;14.70;99.90;;;;;;5034030;28;20032;-66
2022/07/04 01:01:03;;;;;;;2.35;0.85;;;14.60;99.90;;;;;;5026303;28;20119;-66
2022/07/04 01:03:29;;;;;;;1.85;0.80;;;14.60;99.90;;;;;;5023779;28;20022;-66
2022/07/04 01:05:58;;;;;;;3.67;0.80;;;14.60;99.90;;;;;;5037884;28;20025;-65
2022/07/04 01:08:24;;;;;;;1.83;0.98;;;14.50;99.90;;;;;;5031248;28;20029;-66
2022/07/04 01:10:49;;;;;;;1.95;0.95;;;14.40;99.90;;;;;;5033094;28;20426;-66
2022/07/04 01:13:22;;;;;;;1.00;0.90;;;14.50;99.90;;;;;;5039366;28;20033;-66
2022/07/04 01:15:50;;;;;;;4.93;0.80;;;14.50;99.90;;;;;;5033825;28;20053;-66
2022/07/04 01:18:16;;;;;;;2.30;1.10;;;14.40;99.90;;;;;;5043946;28;20041;-66
2022/07/04 01:20:43;;;;;;;4.38;1.00;;;14.40;99.90;;;;;;5031567;28;20033;-66
2022/07/04 01:23:09;;;;;;;4.63;1.70;;;14.40;99.90;;;;;;5033319;28;20045;-66
2022/07/04 01:25:35;;;;;;;2.80;0.82;;;14.30;99.90;;;;;;5038435;28;20083;-66
2022/07/04 01:28:01;;;;;;;1.75;0.95;;;14.20;99.90;;;;;;5025289;28;20047;-66
2022/07/04 01:30:28;;;;;;;5.05;1.20;;;14.20;99.90;;;;;;5032539;28;20029;-66
2022/07/04 01:32:54;;;;;;;2.28;0.95;;;14.10;99.90;;;;;;5031082;28;20446;-67
2022/07/04 01:35:21;;;;;;;1.45;1.00;;;14.10;99.90;;;;;;5032435;28;20112;-67
2022/07/04 01:37:47;;;;;;;4.25;1.13;;;14.20;99.90;;;;;;5030485;28;20025;-66
2022/07/04 01:40:13;;;;;;;3.15;0.90;;;14.10;99.90;;;;;;5033068;28;20037;-66
2022/07/04 01:42:40;;;;;;;4.18;1.10;;;14.10;99.90;;;;;;5028008;28;20021;-66
2022/07/04 01:45:07;;;;;;;5.15;1.13;;;14.10;99.90;;;;;;5034126;28;20512;-66
2022/07/04 01:47:33;;;;;;;2.70;0.95;;;14.00;99.90;;;;;;5031812;28;20026;-66
2022/07/04 01:49:58;;;;;;;4.90;1.50;;;14.00;99.90;;;;;;5026472;28;20033;-66
2022/07/04 01:52:24;;;;;;;3.97;0.80;;;14.00;99.90;;;;;;5028194;28;20025;-66
2022/07/04 01:54:50;;;;;;;5.45;0.98;;;14.00;99.90;;;;;;5028711;28;20028;-66
2022/07/04 01:57:16;;;;;;;1.90;0.70;;;14.10;99.90;;;;;;5035624;28;20026;-66
2022/07/04 02:02:26;;;;;;;0.80;0.70;;;14.00;99.90;;;;;;5038707;28;20085;-65
2022/07/04 02:04:51;;;;;;;1.40;0.70;;;14.00;99.90;;;;;;5048667;28;20119;-65
2022/07/04 02:07:17;;;;;;;1.55;0.73;;;14.00;99.90;;;;;;5042596;28;20056;-68
2022/07/04 02:09:43;;;;;;;1.50;0.82;;;14.00;99.90;;;;;;5049069;28;20025;-66
2022/07/04 02:14:53;;;;;;;1.08;0.60;;;13.90;99.90;;;;;;5035507;28;20037;-66
2022/07/04 02:17:20;;;;;;;1.73;0.73;;;13.80;99.90;;;;;;5036976;28;20028;-67
2022/07/04 02:19:45;;;;;;;2.00;0.68;;;13.80;99.90;;;;;;5032695;28;20083;-66
2022/07/04 02:22:11;;;;;;;1.27;0.55;;;13.90;99.90;;;;;;5042809;28;20056;-66
2022/07/04 02:24:37;;;;;;;1.55;0.73;;;13.90;99.90;;;;;;5034281;28;20029;-67
2022/07/04 02:27:03;;;;;;;1.05;0.73;;;13.80;99.90;;;;;;5029210;28;20533;-66
2022/07/04 02:29:29;;;;;;;1.98;0.80;;;13.80;99.90;;;;;;5043169;28;20033;-66
2022/07/04 02:31:54;;;;;;;1.65;0.55;;;13.80;99.90;;;;;;5048659;28;20029;-66
2022/07/04 02:34:20;;;;;;;1.05;0.70;;;13.60;99.90;;;;;;5047650;28;20075;-67
2022/07/04 02:36:46;;;;;;;0.70;0.70;;;13.50;99.90;;;;;;5031975;28;20028;-65
2022/07/04 02:39:12;;;;;;;1.52;0.60;;;13.40;99.90;;;;;;5041786;28;20041;-66
2022/07/04 02:41:38;;;;;;;0.90;0.60;;;13.30;99.90;;;;;;5028885;28;20030;-66
2022/07/04 02:44:04;;;;;;;2.88;1.00;;;13.30;99.90;;;;;;5043782;28;20040;-66
2022/07/04 02:46:32;;;;;;;1.05;0.68;;;13.30;99.90;;;;;;5044277;28;20385;-66
2022/07/04 02:48:58;;;;;;;2.20;1.20;;;13.20;99.90;;;;;;5047377;28;20112;-66
2022/07/04 02:51:24;;;;;;;0.63;0.63;;;13.20;99.90;;;;;;5027413;28;20065;-66
2022/07/04 02:53:49;;;;;;;1.27;0.70;;;13.20;99.90;;;;;;5035186;28;20112;-66
2022/07/04 02:56:15;;;;;;;1.27;0.63;;;13.20;99.90;;;;;;5038954;28;20036;-66
2022/07/04 02:58:41;;;;;;;2.88;0.50;;;13.20;99.90;;;;;;5032661;28;20049;-66
2022/07/04 03:01:07;;;;;;;0.77;0.60;;;13.30;99.90;;;;;;5032552;28;20041;-66
2022/07/04 03:03:33;;;;;;;1.95;0.77;;;13.30;99.90;;;;;;5042122;28;20022;-66
2022/07/04 03:05:59;;;;;;;1.13;0.47;;;13.40;99.90;;;;;;5033047;28;20112;-66
2022/07/04 03:08:24;;;;;;;1.52;0.63;;;13.40;99.90;;;;;;5040939;28;20063;-66
2022/07/04 03:10:51;;;;;;;1.48;0.60;;;13.50;99.90;;;;;;5032018;28;20029;-66
2022/07/04 03:13:17;;;;;;;3.78;0.70;;;13.50;99.90;;;;;;5036830;28;20026;-66
2022/07/04 03:15:43;;;;;;;1.13;0.77;;;13.50;99.90;;;;;;5033067;28;20025;-66
2022/07/04 03:18:08;;;;;;;2.40;0.70;;;13.40;99.90;;;;;;5034668;28;20505;-66
2022/07/04 03:20:34;;;;;;;2.35;0.70;;;13.50;99.90;;;;;;5031396;28;20048;-66
2022/07/04 03:23:00;;;;;;;3.92;0.75;;;13.40;99.90;;;;;;5029660;28;20038;-66
2022/07/04 03:25:26;;;;;;;0.52;0.40;;;13.30;99.90;;;;;;5032462;28;20164;-66
2022/07/04 03:27:52;;;;;;;2.80;0.70;;;13.20;99.90;;;;;;5031251;28;20469;-67
2022/07/04 03:30:17;;;;;;;2.05;0.70;;;13.00;99.90;;;;;;5036290;28;20029;-66
2022/07/04 03:32:43;;;;;;;0.82;0.65;;;12.90;99.90;;;;;;5038491;28;20082;-67
2022/07/04 03:35:09;;;;;;;1.42;0.95;;;12.90;99.90;;;;;;5033397;28;20056;-67
2022/07/04 03:37:34;;;;;;;4.78;0.95;;;12.80;99.90;;;;;;5031198;28;20021;-66
2022/07/04 03:40:00;;;;;;;1.30;0.70;;;12.90;99.90;;;;;;5029292;28;20497;-66
2022/07/04 03:42:26;;;;;;;1.70;0.70;;;12.90;99.90;;;;;;5030056;28;20124;-66
2022/07/04 03:44:52;;;;;;;1.27;0.40;;;12.90;99.90;;;;;;5029603;28;20476;-66
2022/07/04 03:47:18;;;;;;;2.92;0.80;;;13.10;99.90;;;;;;5026668;28;20033;-67
2022/07/04 03:49:43;;;;;;;0.70;0.70;;;13.20;99.90;;;;;;5017144;28;20025;-66
2022/07/04 03:52:09;;;;;;;4.32;0.60;;;13.20;99.90;;;;;;5034355;28;20036;-67
2022/07/04 03:54:35;;;;;;;4.50;0.73;;;13.10;99.90;;;;;;5042453;28;20048;-67
2022/07/04 03:57:00;;;;;;;1.33;0.50;;;13.20;99.90;;;;;;5018577;28;20668;-67
2022/07/04 03:59:26;;;;;;;1.00;0.43;;;13.20;99.90;;;;;;5017531;28;21686;-67
2022/07/04 04:01:52;;;;;;;2.15;1.02;;;13.20;99.90;;;;;;5022197;28;20018;-67
2022/07/04 04:07:01;;;;;;;1.33;0.60;;;13.20;99.90;;;;;;5030646;28;20052;-67
2022/07/04 04:09:27;;;;;;;2.63;1.13;;;13.20;99.90;;;;;;5038582;28;20025;-67
2022/07/04 04:11:53;;;;;;;1.15;0.60;;;13.20;99.90;;;;;;5028574;28;20032;-66
2022/07/04 04:14:19;;;;;;;1.90;0.60;;;13.20;99.90;;;;;;5029614;28;20029;-67
2022/07/04 04:16:44;;;;;;;1.00;0.60;;;13.20;99.90;;;;;;5029043;28;20434;-67
2022/07/04 04:19:10;;;;;;;2.30;0.60;;;13.30;99.90;;;;;;5031863;28;20050;-68
2022/07/04 04:21:36;;;;;;;3.38;0.80;;;13.30;99.90;;;;;;5035879;28;20028;-67
2022/07/04 04:24:02;;;;;;;2.00;0.47;;;13.30;99.90;;;;;;5035685;28;20057;-67
2022/07/04 04:26:28;;;;;;;1.08;0.68;;;13.40;99.90;;;;;;5036347;28;20044;-65
2022/07/04 04:28:54;;;;;;;3.33;0.60;;;13.40;99.90;;;;;;5028557;28;20036;-66
2022/07/04 04:31:19;;;;;;;2.45;0.57;;;13.40;99.90;;;;;;5035514;28;20424;-66
2022/07/04 04:33:45;;;;;;;1.80;0.65;;;13.40;99.90;;;;;;5034426;28;20033;-66
2022/07/04 04:36:11;;;;;;;2.30;0.63;;;13.40;99.90;;;;;;5030664;28;20032;-66
2022/07/04 04:38:37;;;;;;;3.45;0.50;;;13.40;99.90;;;;;;5032216;28;20084;-66
2022/07/04 04:41:02;;;;;;;3.15;0.90;;;13.40;99.90;;;;;;5035991;28;20032;-67
2022/07/04 04:43:28;;;;;;;1.38;0.70;;;13.40;99.90;;;;;;5037729;28;20070;-67
2022/07/04 04:45:54;;;;;;;0.93;0.55;;;13.40;99.90;;;;;;5028332;28;20116;-67
2022/07/04 04:48:19;;;;;;;6.82;1.08;;;13.30;99.90;;;;;;5030019;28;20071;-67
2022/07/04 04:50:45;;;;;;;1.38;0.68;;;13.40;99.90;;;;;;5029366;28;20024;-67
2022/07/04 04:53:12;;;;;;;2.42;1.20;;;13.40;99.90;;;;;;5030943;28;20064;-67
2022/07/04 04:55:38;;;;;;;1.25;0.60;;;13.40;99.90;;;;;;5033719;28;20025;-67
2022/07/04 04:58:03;;;;;;;1.77;0.55;;;13.30;99.90;;;;;;5026114;28;20029;-66
2022/07/04 05:00:29;;;;;;;1.25;0.63;;;13.30;99.90;;;;;;5028617;28;20040;-67
2022/07/04 05:02:55;;;;;;;1.38;0.60;;;13.20;99.90;;;;;;5032046;28;20099;-67
2022/07/04 05:05:20;;;;;;;3.88;0.98;;;13.20;99.90;;;;;;5028161;28;20033;-67
2022/07/04 05:07:46;;;;;;;4.78;0.68;;;13.20;99.90;;;;;;5033811;28;20028;-67
2022/07/04 05:10:12;;;;;;;2.58;0.70;;;13.20;99.90;;;;;;5033086;28;20029;-67
2022/07/04 05:12:38;;;;;;;1.17;0.63;;;13.10;99.90;;;;;;5039077;28;20099;-67
2022/07/04 05:15:04;;;;;;;0.95;0.50;;;13.20;99.90;;;;;;5031676;28;20065;-67
2022/07/04 05:17:30;;;;;;;2.08;0.60;;;13.20;99.90;;;;;;5031496;28;20055;-67
2022/07/04 05:19:56;;;;;;;4.20;1.10;;;13.20;99.90;;;;;;5032526;28;20494;-67
2022/07/04 05:22:21;;;;;;;2.78;1.20;;;13.20;99.90;;;;;;5030800;28;20119;-67
2022/07/04 05:24:47;;;;;;;1.85;1.00;;;13.30;99.90;;;;;;5027787;28;20064;-68
2022/07/04 05:27:13;;;;;;;1.52;0.50;;;13.30;99.90;;;;;;5028893;28;20030;-67
2022/07/04 05:29:38;;;;;;;6.97;2.28;;;13.30;99.90;;;;;;5029616;28;20435;-67
2022/07/04 05:32:05;;;;;;;4.13;0.85;;;13.40;99.90;;;;;;5030658;28;20029;-67
2022/07/04 05:34:31;;;;;;;2.15;0.65;;;13.30;99.90;;;;;;5042465;28;20404;-67
2022/07/04 05:36:56;;;;;;;1.85;0.88;;;13.40;99.90;;;;;;5036709;28;20038;-67
2022/07/04 05:39:22;;;;;;;1.90;0.50;;;13.50;99.90;;;;;;5034981;28;20122;-66
2022/07/04 05:41:47;;;;;;;4.38;1.15;;;13.50;99.90;;;;;;5034501;28;20028;-65
2022/07/04 05:44:13;;;;;;;3.95;0.65;;;13.50;99.90;;;;;;5030238;28;20026;-66
2022/07/04 05:46:39;;;;;;;1.38;0.50;;;13.50;99.90;;;;;;5033846;28;20124;-67
2022/07/04 05:49:04;;;;;;;2.95;1.00;;;13.60;99.90;;;;;;5031439;28;20434;-66
2022/07/04 05:51:30;;;;;;;1.02;0.57;;;13.60;99.90;;;;;;5039445;28;20435;-67
2022/07/04 05:53:56;;;;;;;2.35;0.85;;;13.60;99.90;;;;;;5034054;28;20531;-67
2022/07/04 05:56:21;;;;;;;2.13;0.82;;;13.70;99.90;;;;;;5028689;28;20037;-67
2022/07/04 05:58:47;;;;;;;2.28;0.68;;;13.80;99.90;;;;;;5031246;28;20033;-67
2022/07/04 06:01:13;;;;;;;1.95;0.57;;;13.90;99.90;;;;;;5039020;28;20029;-67
2022/07/04 06:03:39;;;;;;;1.83;1.00;;;13.90;99.90;;;;;;5030456;28;20029;-67
2022/07/04 06:06:05;;;;;;;3.20;0.63;;;14.00;99.90;;;;;;5033906;28;20048;-66
2022/07/04 06:08:31;;;;;;;2.38;0.80;;;14.10;99.90;;;;;;5041653;28;20021;-66
2022/07/04 06:10:57;;;;;;;4.65;0.60;;;14.20;99.90;;;;;;5040080;28;20434;-65
2022/07/04 06:13:23;;;;;;;6.68;0.70;;;14.30;99.90;;;;;;5032017;28;20470;-66
2022/07/04 06:15:49;;;;;;;3.85;0.47;;;14.40;99.90;;;;;;5039161;28;20131;-66
2022/07/04 06:18:15;;;;;;;1.95;0.52;;;14.50;99.90;;;;;;5036935;28;20057;-66
2022/07/04 06:20:41;;;;;;;4.03;0.73;;;14.60;99.90;;;;;;5043420;28;20048;-66
2022/07/04 06:23:07;;;;;;;1.15;0.60;;;14.60;99.90;;;;;;5032058;28;20477;-66
2022/07/04 06:25:34;;;;;;;2.50;0.82;;;14.70;99.90;;;;;;5036831;28;20046;-67
2022/07/04 06:28:01;;;;;;;3.03;1.02;;;14.70;99.90;;;;;;5030338;28;20374;-66
2022/07/04 06:30:27;;;;;;;1.50;0.80;;;14.90;99.90;;;;;;5038756;28;20440;-67
2022/07/04 06:32:55;;;;;;;3.88;1.30;;;14.90;99.90;;;;;;5030095;28;20477;-67
2022/07/04 06:38:16;;;;;;;3.78;1.20;;;15.10;99.90;;;;;;5028496;28;20043;-67
2022/07/04 06:40:43;;;;;;;1.67;0.70;;;15.20;99.90;;;;;;5046869;28;20040;-67
2022/07/04 06:43:08;;;;;;;2.80;0.68;;;15.20;99.90;;;;;;5032142;28;20992;-67
2022/07/04 06:45:34;;;;;;;2.17;1.08;;;15.30;99.90;;;;;;5032067;28;20025;-67
2022/07/04 06:48:00;;;;;;;2.63;1.40;;;15.30;99.90;;;;;;5029448;28;20084;-67
2022/07/04 06:50:27;;;;;;;3.15;1.30;;;15.30;99.90;;;;;;5034767;28;20032;-67
2022/07/04 06:52:52;;;;;;;2.00;0.73;;;15.40;99.90;;;;;;5034338;28;20037;-67
2022/07/04 06:55:18;;;;;;;3.85;0.60;;;15.40;99.90;;;;;;5042557;28;20037;-67
2022/07/04 06:57:44;;;;;;;2.53;0.70;;;15.40;99.90;;;;;;5032834;28;20081;-65
2022/07/04 07:00:10;;;;;;;2.92;0.80;;;15.40;99.90;;;;;;5041990;28;20564;-67
2022/07/04 07:02:36;;;;;;;1.30;0.60;;;15.40;99.90;;;;;;5041013;28;20029;-67
2022/07/04 07:05:03;;;;;;;2.40;0.70;;;15.40;99.90;;;;;;5032434;28;20064;-67
2022/07/04 07:07:30;;;;;;;2.67;0.50;;;15.40;99.90;;;;;;5032403;28;20021;-67
2022/07/04 07:09:55;;;;;;;2.95;0.95;;;15.30;99.90;;;;;;5028491;28;20033;-68
2022/07/04 07:12:22;;;;;;;1.83;0.63;;;15.20;99.90;;;;;;5028446;28;20346;-66
2022/07/04 07:14:48;;;;;;;2.45;0.45;;;15.30;99.90;;;;;;5033610;28;20091;-67
2022/07/04 07:17:15;;;;;;;2.60;1.00;;;15.30;99.90;;;;;;5031668;28;20029;-68
2022/07/04 07:19:42;;;;;;;1.85;0.80;;;15.30;99.90;;;;;;5039324;28;20064;-68
2022/07/04 07:22:12;;;;;;;3.58;0.90;;;15.30;99.90;;;;;;5036091;28;20025;-67
2022/07/04 07:24:37;;;;;;;3.83;1.10;;;15.30;99.90;;;;;;5040733;28;20029;-67
2022/07/04 07:27:04;;;;;;;4.95;1.40;;;15.30;99.90;;;;;;5027376;28;20029;-68
2022/07/04 07:29:29;;;;;;;1.85;0.95;;;15.30;99.90;;;;;;5031212;28;20496;-68
2022/07/04 07:31:55;;;;;;;5.35;1.60;;;15.40;99.90;;;;;;5039028;28;20022;-67
2022/07/04 07:34:23;;;;;;;2.63;0.98;;;15.40;99.90;;;;;;5032465;28;20029;-66
2022/07/04 07:36:48;;;;;;;3.42;0.85;;;15.50;99.90;;;;;;5034378;28;20031;-67
2022/07/04 07:39:14;;;;;;;1.50;0.77;;;15.60;99.90;;;;;;5032608;28;20396;-67
2022/07/04 07:41:40;;;;;;;3.22;1.33;;;15.60;99.90;;;;;;5038299;28;20064;-66
2022/07/04 07:44:06;;;;;;;1.50;0.68;;;15.70;99.90;;;;;;5027401;28;20029;-65
2022/07/04 07:46:32;;;;;;;1.85;0.57;;;15.90;99.90;;;;;;5022949;28;20116;-66
2022/07/04 07:48:58;;;;;;;4.50;1.95;;;16.00;99.90;;;;;;5027874;28;20069;-65
2022/07/04 07:51:24;;;;;;;2.78;1.33;;;16.10;99.90;;;;;;5028409;28;20436;-66
2022/07/04 07:53:49;;;;;;;1.50;0.65;;;16.10;99.90;;;;;;5030222;28;20030;-67
2022/07/04 07:56:15;;;;;;;3.72;0.88;;;16.10;99.90;;;;;;5031585;28;20038;-68
2022/07/04 07:58:41;;;;;;;1.30;0.60;;;16.30;99.90;;;;;;5036492;28;20052;-67
2022/07/04 08:01:06;;;;;;;3.50;0.47;;;16.50;99.90;;;;;;5032038;28;20033;-67
2022/07/04 08:06:21;;;;;;;2.30;0.50;;;16.80;99.90;;;;;;5005906;28;20038;-67
2022/07/04 08:08:47;;;;;;;1.00;0.40;;;17.10;99.90;;;;;;5006328;28;20371;-67
2022/07/04 08:11:12;;;;;;;0.50;0.20;;;17.30;99.90;;;;;;5007978;28;20042;-66
2022/07/04 08:13:39;;;;;;;0.63;0.20;;;17.40;99.90;;;;;;5006551;28;20026;-68
2022/07/04 08:16:05;;;;;;;0.93;0.30;;;17.50;99.90;;;;;;5004528;28;20048;-67
2022/07/04 08:18:32;;;;;;;3.13;1.15;;;17.70;99.90;;;;;;5007324;28;20037;-66
2022/07/04 08:20:57;;;;;;;0.90;0.10;;;17.70;99.90;;;;;;5004683;28;20042;-65
2022/07/04 08:23:23;;;;;;;1.52;0.50;;;17.80;99.90;;;;;;5003435;28;20196;-69
2022/07/04 08:25:49;;;;;;;1.02;0.30;;;18.00;99.90;;;;;;5001374;28;20021;-66
2022/07/04 08:28:15;;;;;;;4.60;0.63;;;18.10;99.90;;;;;;5003120;28;20022;-68
2022/07/04 08:30:41;;;;;;;2.30;0.32;;;18.20;99.90;;;;;;5002545;28;20026;-68
2022/07/04 08:33:06;;;;;;;0.98;0.45;;;18.30;99.90;;;;;;5003619;28;21596;-67
2022/07/04 08:35:34;;;;;;;1.23;0.30;;;18.20;99.90;;;;;;5004637;28;20028;-69
2022/07/04 08:38:00;;;;;;;1.48;0.30;;;18.20;99.90;;;;;;5004443;28;20046;-69
2022/07/04 08:40:28;;;;;;;3.75;0.60;;;18.30;99.90;;;;;;5006580;28;20402;-71
2022/07/04 08:42:54;;;;;;;6.72;0.40;;;18.40;99.90;;;;;;5007686;28;20076;-71
2022/07/04 08:45:29;;;;;;;4.10;0.32;;;18.60;99.90;;;;;;5020025;28;20029;-68
2022/07/04 08:48:06;;;;;;;1.15;0.38;;;18.60;99.90;;;;;;5029001;28;20048;-69
2022/07/04 08:50:39;;;;;;;1.95;0.20;;;18.70;99.90;;;;;;5029290;28;20079;-71
2022/07/04 08:53:17;;;;;;;2.92;0.40;;;18.70;99.90;;;;;;5023027;28;20033;-70
2022/07/04 08:58:30;;;;;;;3.17;0.22;;;18.90;99.90;;;;;;5025149;28;20098;-71
2022/07/04 09:00:57;;;;;;;3.58;0.40;;;18.80;99.90;;;;;;5031605;28;20064;-71
2022/07/04 09:03:24;;;;;;;2.70;0.40;;;18.90;99.90;;;;;;5030569;28;20030;-69
2022/07/04 09:05:50;;;;;;;0.32;0.10;;;18.90;99.40;;;;;;5034799;28;20021;-71
2022/07/04 09:08:16;;;;;;;1.58;0.45;;;18.90;98.70;;;;;;5030351;28;20033;-69
2022/07/04 09:10:42;;;;;;;0.95;0.17;;;19.00;99.90;;;;;;5026179;28;20036;-71
2022/07/04 09:13:09;;;;;;;0.70;0.30;;;19.00;99.00;;;;;;5026623;28;20127;-70
2022/07/04 09:15:35;;;;;;;1.40;0.50;;;19.20;99.90;;;;;;5031661;28;20021;-71
2022/07/04 09:18:02;;;;;;;1.23;0.43;;;19.50;99.00;;;;;;5025878;28;20048;-72
2022/07/04 09:20:31;;;;;;;0.77;0.40;;;19.40;98.00;;;;;;5027525;28;20053;-71
2022/07/04 09:22:57;;;;;;;0.95;0.43;;;19.30;96.30;;;;;;5029252;28;20486;-71
2022/07/04 09:25:24;;;;;;;0.38;0.20;;;19.40;96.30;;;;;;5034819;28;20030;-70
2022/07/04 09:27:55;;;;;;;0.60;0.30;;;19.50;96.20;;;;;;5025587;28;20021;-71
2022/07/04 09:30:26;;;;;;;1.73;0.40;;;19.30;95.50;;;;;;5026933;28;20120;-71
2022/07/04 09:32:59;;;;;;;3.10;0.52;;;19.40;96.50;;;;;;5025560;28;20187;-70
2022/07/04 09:35:27;;;;;;;2.72;1.15;;;19.60;97.20;;;;;;5028709;28;20025;-71
2022/07/04 09:38:03;;;;;;;2.47;0.70;;;19.60;96.60;;;;;;5024223;28;20488;-70
2022/07/04 09:40:31;;;;;;;0.80;0.50;;;19.50;95.90;;;;;;5029001;28;20063;-71
2022/07/04 09:42:59;;;;;;;3.35;0.77;;;19.30;97.50;;;;;;5028839;28;20107;-67
2022/07/04 09:45:26;;;;;;;1.85;0.50;;;19.50;97.10;;;;;;5028282;28;20064;-71
2022/07/04 09:47:58;;;;;;;2.38;0.35;;;19.50;96.90;;;;;;5025048;28;20022;-68
2022/07/04 09:50:25;;;;;;;1.20;0.30;;;19.90;96.60;;;;;;5025459;28;20021;-68
2022/07/04 09:52:54;;;;;;;1.40;0.40;;;19.80;97.10;;;;;;5024708;28;20503;-68
2022/07/04 09:55:27;;;;;;;1.30;0.85;;;20.00;96.10;;;;;;5023601;28;20474;-69
2022/07/04 09:57:55;;;;;;;2.95;0.57;;;19.80;95.90;;;;;;5018345;28;20025;-71
2022/07/04 10:00:26;;;;;;;1.27;0.50;;;20.00;96.80;;;;;;5023520;28;20034;-72
2022/07/04 10:02:53;;;;;;;;;;;20.00;96.90;;;;;;5029785;28;20034;-71
2022/07/04 10:05:21;;;;;;;1.77;0.43;;;20.10;96.60;;;;;;5029960;28;19909;-71
2022/07/04 10:07:47;;;;;;;1.08;0.30;;;20.10;96.60;;;;;;5029173;28;20026;-72
2022/07/04 10:10:35;;;;;;;0.70;0.28;;;20.00;96.70;;;;;;5033433;28;20025;-71
2022/07/04 10:13:11;;;;;;;0.45;0.20;;;20.00;97.20;;;;;;5026266;28;20037;-72
2022/07/04 10:15:39;;;;;;;0.93;0.40;;;20.20;96.70;;;;;;5029475;28;20123;-71
2022/07/04 10:18:07;;;;;;;3.85;1.30;;;20.40;97.20;;;;;;5029431;28;20045;-72
2022/07/04 10:20:34;;;;;;;0.98;0.32;;;20.60;97.60;;;;;;5031110;28;20477;-71
2022/07/04 10:23:00;;;;;;;0.90;0.40;;;20.50;97.80;;;;;;5026662;28;20038;-71
2022/07/04 10:25:26;;;;;;;0.80;0.70;;;20.70;97.80;;;;;;5029919;28;20029;-72
2022/07/04 10:27:52;;;;;;;0.60;0.30;;;20.90;97.80;;;;;;5031659;28;20079;-71
2022/07/04 10:30:30;;;;;;;1.60;0.40;;;20.80;98.00;;;;;;5029703;28;20032;-69
2022/07/04 10:32:59;;;;;;;1.38;0.30;;;20.90;97.90;;;;;;5029670;28;20036;-71
2022/07/04 10:35:48;;;;;;;0.85;0.43;;;20.70;98.90;;;;;;5030177;28;20025;-69
2022/07/04 10:38:16;;;;;;;1.05;0.30;;;20.80;98.40;;;;;;5028177;28;20057;-67
2022/07/04 10:40:57;;;;;;;2.40;0.50;;;21.00;98.10;;;;;;5029325;28;20255;-70
2022/07/04 10:43:37;;;;;;;2.38;0.43;;;21.30;97.90;;;;;;5022768;28;20021;-70
2022/07/04 10:46:32;;;;;;;3.15;0.60;;;21.20;97.60;;;;;;5022342;28;20037;-71
2022/07/04 10:49:02;;;;;;;2.40;0.45;;;21.20;98.00;;;;;;5023164;28;20041;-71
2022/07/04 10:51:50;;;;;;;2.63;0.50;;;20.90;98.80;;;;;;5032102;28;20099;-72
2022/07/04 10:54:32;;;;;;;0.77;0.70;;;20.90;99.50;;;;;;5025053;28;20034;-71
2022/07/04 10:57:15;;;;;;;2.08;0.60;;;21.10;99.60;;;;;;5026155;28;20034;-70
2022/07/04 10:59:54;;;;;;;2.83;0.52;;;21.20;98.30;;;;;;5031142;28;20401;-71
2022/07/04 11:02:20;;;;;;;2.15;0.50;;;21.20;98.30;;;;;;5035386;28;20033;-69
2022/07/04 11:04:47;;;;;;;2.15;0.60;;;21.00;98.40;;;;;;5024651;28;20045;-69
2022/07/04 11:07:14;;;;;;;1.10;0.60;;;21.00;98.20;;;;;;5027155;28;20123;-69
2022/07/04 11:09:40;;;;;;;0.93;0.40;;;21.00;97.40;;;;;;5026412;28;20437;-70
2022/07/04 11:12:06;;;;;;;2.15;0.95;;;20.80;97.60;;;;;;5022895;28;20032;-72
2022/07/04 11:14:45;;;;;;;3.67;0.55;;;20.80;98.20;;;;;;5030177;28;20040;-69
2022/07/04 11:17:32;;;;;;;1.27;0.50;;;20.80;97.70;;;;;;5018549;28;20032;-69
2022/07/04 11:20:06;;;;;;;8.90;0.90;;;20.80;97.70;;;;;;5018076;28;20085;-70
2022/07/04 11:22:32;;;;;;;1.65;0.30;;;21.20;97.30;;;;;;5021144;28;20752;-70
2022/07/04 11:24:58;;;;;;;2.70;0.60;;;21.30;97.60;;;;;;5019095;28;20572;-71
2022/07/04 11:27:23;;;;;;;2.42;0.93;;;21.80;97.00;;;;;;5026758;28;20063;-71
2022/07/04 11:29:53;;;;;;;3.40;0.70;;;22.10;94.60;;;;;;5023497;28;20036;-71
2022/07/04 11:32:21;;;;;;;2.85;0.40;;;21.90;95.20;;;;;;5019714;28;20041;-71
2022/07/04 11:34:48;;;;;;;1.73;0.35;;;21.60;95.10;;;;;;5027678;28;20464;-71
2022/07/04 11:37:14;;;;;;;2.05;0.57;;;22.00;94.80;;;;;;5026074;28;20022;-72
2022/07/04 11:39:40;;;;;;;1.15;0.50;;;22.70;93.80;;;;;;5034118;28;20049;-72
2022/07/04 11:45:05;;;;;;;2.88;0.60;;;24.00;91.10;;;;;;5026249;28;20091;-73
2022/07/04 11:47:42;;;;;;;2.92;0.75;;;23.80;91.00;;;;;;5026868;28;20040;-72
2022/07/04 11:50:19;;;;;;;5.07;0.77;;;23.20;92.40;;;;;;5026209;28;20021;-72
2022/07/04 11:52:51;;;;;;;3.40;0.63;;;23.10;93.10;;;;;;5027768;28;20033;-71
2022/07/04 11:55:17;;;;;;;3.15;1.17;;;22.80;93.30;;;;;;5028099;28;20033;-69
2022/07/04 11:57:48;;;;;;;3.65;0.70;;;22.70;94.50;;;;;;5020847;28;20038;-70
2022/07/04 12:00:16;;;;;;;3.40;0.68;;;23.00;94.50;;;;;;5026415;28;20037;-69
2022/07/04 12:02:43;;;;;;;3.28;0.70;;;23.30;94.90;;;;;;5033179;28;20057;-68
2022/07/04 12:05:11;;;;;;;3.22;0.70;;;23.10;95.30;;;;;;5024883;28;20036;-68
2022/07/04 12:07:39;;;;;;;5.07;0.80;;;23.30;94.60;;;;;;5028483;28;20009;-70
2022/07/04 12:10:22;;;;;;;4.03;0.82;;;23.30;94.80;;;;;;5027534;28;20057;-69
2022/07/04 12:12:53;;;;;;;3.13;0.57;;;23.40;94.30;;;;;;5024403;28;20031;-69
2022/07/04 12:15:19;;;;;;;3.15;0.77;;;23.00;95.20;;;;;;5031272;28;20068;-67
2022/07/04 12:17:45;;;;;;;3.95;0.70;;;22.20;95.80;;;;;;5029107;28;20029;-69
2022/07/04 12:20:17;;;;;;;2.47;0.70;;;21.90;96.70;;;;;;5028978;28;20034;-69
2022/07/04 12:22:49;;;;;;;3.63;1.08;;;21.60;96.10;;;;;;5028531;28;20166;-68
2022/07/04 12:25:28;;;;;;;2.72;0.70;;;21.60;96.60;;;;;;5028660;28;20104;-69
2022/07/04 12:27:56;;;;;;;2.13;0.52;;;22.20;96.30;;;;;;5026014;28;20044;-69
2022/07/04 12:30:23;;;;;;;3.08;0.85;;;22.30;95.70;;;;;;5030217;28;20029;-68
2022/07/04 12:32:51;;;;;;;3.58;0.88;;;22.40;96.00;;;;;;5029371;28;20029;-68
2022/07/04 12:36:00;;;;;;;2.20;0.50;;;22.20;96.20;;;;;;5030407;28;20044;-68
2022/07/04 12:38:28;;;;;;;1.23;0.80;;;22.80;95.20;;;;;;4983961;28;20481;-67
2022/07/04 12:41:02;;;;;;;3.55;0.57;;;23.20;95.00;;;;;;4984883;28;20088;-68
2022/07/04 12:43:40;;;;;;;3.22;0.65;;;23.80;94.60;;;;;;4989100;28;20406;-68
2022/07/04 12:46:14;;;;;;;4.22;0.50;;;23.30;93.00;;;;;;4985372;28;20041;-68
2022/07/04 12:48:41;;;;;;;5.25;1.23;;;22.90;94.90;;;;;;4984845;28;20042;-68
2022/07/04 12:51:10;;;;;;;3.95;0.50;;;23.60;93.50;;;;;;4993502;28;20030;-67
2022/07/04 12:53:40;;;;;;;4.72;0.50;;;23.00;94.60;;;;;;4992778;28;20033;-68
2022/07/04 12:56:07;;;;;;;2.70;0.70;;;23.20;94.60;;;;;;4984678;28;20521;-63
2022/07/04 12:58:33;;;;;;;4.32;0.57;;;23.40;94.40;;;;;;4985877;28;20117;-68
2022/07/04 13:00:59;;;;;;;5.38;0.70;;;24.10;92.40;;;;;;4981119;28;20050;-69
2022/07/04 13:03:25;;;;;;;3.78;0.63;;;24.10;92.10;;;;;;4985524;28;20179;-70
2022/07/04 13:05:50;;;;;;;10.63;0.85;;;23.70;92.10;;;;;;4986900;28;20137;-69
2022/07/04 13:08:16;;;;;;;4.22;1.30;;;23.30;93.20;;;;;;4992978;28;20034;-69